Time;durP1;ratioP1;P1;durP2;ratioP2;P2;SDS_P1;SDS_P2;PMS_P1;PMS_P2;Temp;Humidity;BMP_temperature;BMP_pressure;BME280_temperature;BME280_humidity;BME280_pressure;Samples;Min_cycle;Max_cycle;Signal;HPM_P1;HPM_P2
2022/03/03 00:03:28;;;;;;;159.10;60.40;;;;;;;0.29;66.16;101276.55;5151237;56;1141044;-72
2022/03/03 00:08:34;;;;;;;135.07;55.80;;;;;;;0.19;66.43;101266.37;5151126;56;1140826;-71
2022/03/03 00:13:40;;;;;;;126.60;53.03;;;;;;;0.25;66.57;101271.44;5151077;56;1140829;-70
2022/03/03 00:18:45;;;;;;;122.95;51.45;;;;;;;0.27;66.79;101265.31;5151174;56;1140768;-73
2022/03/03 00:23:52;;;;;;;140.87;56.37;;;;;;;0.14;66.19;101267.80;5135877;56;1140780;-72
2022/03/03 00:28:57;;;;;;;130.10;52.88;;;;;;;0.13;66.75;101267.38;5151049;56;1140862;-70
2022/03/03 00:34:03;;;;;;;120.05;50.58;;;;;;;0.11;66.76;101260.05;5151321;56;1141036;-70
2022/03/03 00:39:10;;;;;;;139.95;57.67;;;;;;;0.10;66.94;101267.89;5151288;56;1140819;-72
2022/03/03 00:44:15;;;;;;;133.80;55.47;;;;;;;0.09;66.88;101254.03;5151034;56;1141041;-71
2022/03/03 00:49:22;;;;;;;131.17;55.10;;;;;;;0.07;66.84;101250.61;5151020;56;1140875;-71
2022/03/03 00:54:27;;;;;;;132.30;51.93;;;;;;;0.00;66.76;101260.28;5142774;56;1140811;-68
2022/03/03 00:59:33;;;;;;;126.77;51.67;;;;;;;-0.06;66.88;101253.08;5063724;56;1141033;-69
2022/03/03 01:04:39;;;;;;;123.67;48.90;;;;;;;-0.09;67.11;101236.23;5063607;57;1142893;-70
2022/03/03 01:09:45;;;;;;;129.17;52.77;;;;;;;-0.27;66.35;101228.84;5063574;57;1142846;-69
2022/03/03 01:14:52;;;;;;;136.52;53.94;;;;;;;-0.53;66.55;101230.25;5083254;56;1142966;-71
2022/03/03 01:19:58;;;;;;;141.60;57.45;;;;;;;-0.56;67.35;101217.77;5063621;57;1143032;-72
2022/03/03 01:25:06;;;;;;;127.87;49.42;;;;;;;-0.51;67.98;101207.70;5063563;56;1142972;-73
2022/03/03 01:30:12;;;;;;;115.90;48.83;;;;;;;-0.66;67.42;101193.73;5063449;57;1143016;-73
2022/03/03 01:35:18;;;;;;;110.83;46.60;;;;;;;-1.00;67.73;101201.34;5063537;57;1142907;-72
2022/03/03 01:40:25;;;;;;;120.90;49.27;;;;;;;-1.00;68.90;101200.04;5062477;56;1143281;-70
2022/03/03 01:45:30;;;;;;;130.70;52.43;;;;;;;-0.86;69.31;101186.34;5056915;56;1143075;-72
2022/03/03 01:50:37;;;;;;;121.67;52.00;;;;;;;-0.99;68.60;101201.75;5056828;56;1142990;-72
2022/03/03 01:55:43;;;;;;;122.00;51.13;;;;;;;-1.03;68.85;101194.90;5079433;56;1142830;-70
2022/03/03 02:00:51;;;;;;;111.23;49.50;;;;;;;-1.07;69.24;101194.09;5121283;56;1142901;-71
2022/03/03 02:05:58;;;;;;;153.78;57.53;;;;;;;-0.93;69.86;101188.66;5121651;56;1143101;-73
2022/03/03 02:11:05;;;;;;;127.60;48.37;;;;;;;-0.84;70.04;101183.72;5120742;56;1180692;-71
2022/03/03 02:16:12;;;;;;;131.27;49.47;;;;;;;-0.75;69.94;101180.92;5094091;56;1143197;-72
2022/03/03 02:21:18;;;;;;;127.07;52.63;;;;;;;-0.71;69.49;101173.48;5121240;56;1142765;-71
2022/03/03 02:26:25;;;;;;;127.95;50.50;;;;;;;-0.67;69.50;101155.66;5121044;56;1142975;-72
2022/03/03 02:31:30;;;;;;;133.93;50.50;;;;;;;-0.68;69.37;101150.05;5121359;56;1142812;-71
2022/03/03 02:36:36;;;;;;;117.20;50.03;;;;;;;-0.69;69.50;101148.34;5121028;56;1143120;-68
2022/03/03 02:41:42;;;;;;;146.37;62.07;;;;;;;-0.69;69.27;101140.98;5121172;56;1142851;-72
2022/03/03 02:46:48;;;;;;;141.60;61.03;;;;;;;-0.71;69.47;101130.19;5121165;56;1142858;-70
2022/03/03 02:51:54;;;;;;;128.23;56.77;;;;;;;-0.76;69.25;101129.42;5121575;56;1142900;-73
2022/03/03 03:02:23;;;;;;;100.63;44.10;;;;;;;-1.10;68.60;101129.73;5057232;56;1142901;-72
2022/03/03 03:07:31;;;;;;;106.57;46.20;;;;;;;-1.16;69.46;101124.20;5056775;57;1142718;-72
2022/03/03 03:12:37;;;;;;;116.07;47.40;;;;;;;-1.13;69.72;101131.94;5056679;57;1142830;-72
2022/03/03 03:17:43;;;;;;;122.13;48.80;;;;;;;-1.11;69.71;101137.10;5056860;56;1142848;-71
2022/03/03 03:22:49;;;;;;;129.30;50.27;;;;;;;-1.32;68.76;101134.47;5025003;57;1142977;-72
2022/03/03 03:27:55;;;;;;;147.35;54.58;;;;;;;-1.58;68.81;101127.63;5057079;56;1143177;-74
2022/03/03 03:33:01;;;;;;;135.93;52.35;;;;;;;-1.78;69.16;101136.59;5056878;56;1143028;-73
2022/03/03 03:38:07;;;;;;;130.18;49.67;;;;;;;-1.79;70.22;101128.41;5056679;56;1142845;-74
2022/03/03 03:43:13;;;;;;;127.57;48.77;;;;;;;-1.65;70.82;101105.26;5068234;56;1143157;-70
2022/03/03 03:48:19;;;;;;;126.70;48.13;;;;;;;-1.79;69.59;101100.32;5120482;56;1143244;-73
2022/03/03 03:53:25;;;;;;;147.02;50.88;;;;;;;-1.96;70.02;101098.46;5136865;56;1142971;-73
2022/03/03 03:58:31;;;;;;;135.93;49.90;;;;;;;-1.86;70.86;101093.11;5113403;56;1143059;-72
2022/03/03 04:03:37;;;;;;;116.10;43.90;;;;;;;-1.78;70.85;101080.86;5098486;56;1143148;-71
2022/03/03 04:08:43;;;;;;;106.17;43.53;;;;;;;-1.93;70.59;101077.23;5148839;56;1142942;-71
2022/03/03 04:13:49;;;;;;;112.00;46.60;;;;;;;-1.85;71.40;101070.64;5150643;56;1142883;-71
2022/03/03 04:18:56;;;;;;;111.90;44.88;;;;;;;-1.78;71.39;101071.78;5164603;56;1142908;-70
2022/03/03 04:24:02;;;;;;;109.90;45.92;;;;;;;-1.66;71.65;101075.02;5140126;56;1142858;-71
2022/03/03 04:29:07;;;;;;;113.30;52.35;;;;;;;-1.63;71.42;101071.94;5148227;56;1143042;-70
2022/03/03 04:34:13;;;;;;;119.60;50.80;;;;;;;-1.58;71.24;101074.02;5148052;56;1142844;-75
2022/03/03 04:39:19;;;;;;;123.97;50.27;;;;;;;-1.56;70.99;101068.36;5148107;56;1142892;-70
2022/03/03 04:44:24;;;;;;;138.00;55.07;;;;;;;-1.69;70.26;101055.22;5147940;56;1142919;-69
2022/03/03 04:49:30;;;;;;;136.77;59.27;;;;;;;-1.70;70.79;101056.54;5090300;56;1143045;-70
2022/03/03 04:54:36;;;;;;;129.25;52.55;;;;;;;-1.84;70.19;101064.58;5036932;56;1142869;-70
2022/03/03 04:59:41;;;;;;;119.63;52.97;;;;;;;-1.80;70.87;101054.53;5098221;56;1142949;-69
2022/03/03 05:04:47;;;;;;;126.77;51.60;;;;;;;-1.77;70.99;101050.59;5114309;56;1142868;-69
2022/03/03 05:09:53;;;;;;;130.12;51.48;;;;;;;-1.78;70.59;101052.77;5082475;56;1143085;-74
2022/03/03 05:14:58;;;;;;;122.07;46.50;;;;;;;-2.22;69.50;101054.86;5066801;56;1143092;-70
2022/03/03 05:20:05;;;;;;;121.07;44.53;;;;;;;-2.42;70.47;101056.47;5114388;56;1152578;-74
2022/03/03 05:25:11;;;;;;;97.97;41.30;;;;;;;-2.53;70.58;101056.64;5114227;56;1143009;-70
2022/03/03 05:30:16;;;;;;;120.33;46.53;;;;;;;-2.62;71.35;101065.01;5042447;56;1140921;-73
2022/03/03 05:35:23;;;;;;;134.67;51.37;;;;;;;-2.46;72.13;101050.95;5038193;56;1142926;-71
2022/03/03 05:40:30;;;;;;;190.87;71.30;;;;;;;-2.35;72.11;101054.65;5052601;56;1142933;-74
2022/03/03 05:45:39;;;;;;;223.57;83.93;;;;;;;-2.26;72.00;101063.11;5046920;56;1142965;-68
2022/03/03 05:50:45;;;;;;;170.10;73.20;;;;;;;-2.29;71.57;101064.45;5045304;56;1142860;-72
2022/03/03 05:55:58;;;;;;;143.27;55.80;;;;;;;-2.45;71.24;101066.91;5039820;56;1142885;-72
2022/03/03 06:01:04;;;;;;;137.10;51.95;;;;;;;-2.43;71.79;101071.59;5054995;56;1143004;-72
2022/03/03 06:06:34;;;;;;;137.40;54.67;;;;;;;-2.42;72.14;101072.45;5053191;56;1143014;-69
2022/03/03 06:11:47;;;;;;;202.40;73.00;;;;;;;-2.26;72.79;101084.28;5006690;56;1142952;-73
2022/03/03 06:16:53;;;;;;;189.10;75.10;;;;;;;-2.28;71.85;101082.15;5000289;56;1142872;-70
2022/03/03 06:21:59;;;;;;;163.33;63.47;;;;;;;-2.25;72.66;101091.17;5031153;56;1142935;-73
2022/03/03 06:27:05;;;;;;;135.13;56.27;;;;;;;-2.22;72.71;101095.02;5053146;56;1150973;-73
2022/03/03 06:32:11;;;;;;;111.42;42.70;;;;;;;-2.23;74.26;101098.48;5031789;56;1142872;-68
2022/03/03 06:37:19;;;;;;;107.70;40.93;;;;;;;-2.17;75.65;101109.62;5041686;56;1142755;-74
2022/03/03 06:42:26;;;;;;;122.97;45.27;;;;;;;-2.08;76.91;101101.27;5055611;56;1142980;-70
2022/03/03 06:47:34;;;;;;;108.63;41.60;;;;;;;-2.00;78.12;101105.90;5114309;56;1142837;-73
2022/03/03 06:52:40;;;;;;;104.70;43.33;;;;;;;-1.97;78.97;101096.75;5138981;56;1142840;-72
2022/03/03 06:57:50;;;;;;;104.83;44.40;;;;;;;-1.89;79.65;101091.01;5083473;56;1142919;-74
2022/03/03 07:02:56;;;;;;;121.63;48.27;;;;;;;-1.77;80.50;101087.75;5063105;55;1143151;-71
2022/03/03 07:08:02;;;;;;;110.37;45.77;;;;;;;-1.54;81.23;101092.97;5064380;56;1142907;-70
2022/03/03 07:13:08;;;;;;;108.00;44.47;;;;;;;-1.40;81.67;101078.44;5116380;56;1142784;-74
2022/03/03 07:18:18;;;;;;;98.87;37.97;;;;;;;-1.38;82.37;101081.86;5080936;56;1142797;-71
2022/03/03 07:23:39;;;;;;;124.97;45.47;;;;;;;-1.43;83.90;101085.39;5083471;56;1140912;-71
2022/03/03 07:28:52;;;;;;;95.75;39.03;;;;;;;-1.40;84.23;101095.30;5099684;56;1142860;-70
2022/03/03 07:34:01;;;;;;;109.33;42.73;;;;;;;-1.32;86.80;101092.95;5136439;56;1141413;-72
2022/03/03 07:39:11;;;;;;;81.08;30.36;;;;;;;-1.31;87.39;101082.13;5062381;56;1142808;-73
2022/03/03 07:44:16;;;;;;;103.80;43.17;;;;;;;-1.25;88.91;101093.70;5115593;56;1141243;-70
2022/03/03 07:49:23;;;;;;;92.43;36.20;;;;;;;-1.21;88.25;101092.29;5137781;55;1142992;-69
2022/03/03 07:54:29;;;;;;;112.57;43.63;;;;;;;-1.18;89.20;101087.48;5093576;55;1140927;-78
2022/03/03 07:59:37;;;;;;;100.90;36.30;;;;;;;-1.12;89.11;101099.91;5068969;56;1143344;-77
2022/03/03 08:04:44;;;;;;;79.27;32.10;;;;;;;-1.07;89.70;101095.45;5067264;56;1143135;-72
2022/03/03 08:09:53;;;;;;;97.67;39.60;;;;;;;-1.00;90.19;101097.49;5123836;56;1140951;-73
2022/03/03 08:15:00;;;;;;;71.30;30.23;;;;;;;-0.96;91.01;101101.75;5063678;56;1141318;-74
2022/03/03 08:20:09;;;;;;;40.33;15.77;;;;;;;-0.91;91.81;101106.81;5063111;56;1140817;-74
2022/03/03 08:41:24;;;;;;;68.43;24.80;;;;;;;-0.81;91.85;101109.66;5040903;56;46142;-68
2022/03/03 08:46:34;;;;;;;68.40;27.20;;;;;;;-0.74;91.73;101104.72;4992948;57;1136791;-72
2022/03/03 08:51:41;;;;;;;73.50;29.83;;;;;;;-0.67;91.26;101105.45;5007260;57;1141078;-72
2022/03/03 08:56:46;;;;;;;92.63;32.53;;;;;;;-0.59;91.11;101094.43;4976882;58;1141015;-74
2022/03/03 09:01:57;;;;;;;76.87;33.07;;;;;;;-0.46;91.46;101100.61;4985577;57;1141009;-72
2022/03/03 09:07:04;;;;;;;77.70;33.77;;;;;;;-0.35;91.41;101108.17;5030275;57;1141024;-70
2022/03/03 09:12:10;;;;;;;52.48;20.60;;;;;;;-0.29;91.07;101105.41;5054638;57;1140901;-70
2022/03/03 09:17:15;;;;;;;77.08;33.98;;;;;;;-0.23;91.98;101101.83;5029558;57;1141168;-71
2022/03/03 09:22:21;;;;;;;73.70;33.18;;;;;;;-0.33;91.20;101117.23;5032915;57;1212951;-70
2022/03/03 09:27:26;;;;;;;58.07;26.70;;;;;;;-0.26;91.77;101104.49;5032742;56;1141323;-71
2022/03/03 09:32:32;;;;;;;145.27;56.50;;;;;;;-0.16;92.07;101098.20;5033538;57;1140871;-70
2022/03/03 09:37:39;;;;;;;60.40;24.10;;;;;;;-0.14;92.32;101118.48;5074366;56;1143211;-74
2022/03/03 09:43:06;;;;;;;64.87;26.47;;;;;;;-0.10;92.88;101108.44;5115440;56;1140952;-73
2022/03/03 09:48:12;;;;;;;72.33;30.50;;;;;;;-0.03;92.40;101103.06;5106889;56;1141205;-70
2022/03/03 09:53:19;;;;;;;61.67;26.00;;;;;;;0.06;92.23;101118.02;5095949;56;1141082;-74
2022/03/03 09:58:25;;;;;;;57.07;22.10;;;;;;;0.10;92.47;101118.35;5115589;56;1139009;-73
2022/03/03 10:03:37;;;;;;;53.93;22.87;;;;;;;0.10;92.27;101119.20;5117397;56;1139113;-73
2022/03/03 10:08:43;;;;;;;56.65;21.42;;;;;;;0.09;92.67;101128.34;5107332;56;1139008;-72
2022/03/03 10:13:54;;;;;;;54.10;22.33;;;;;;;0.08;93.59;101140.49;5088826;56;1138950;-71
2022/03/03 10:19:06;;;;;;;44.60;19.17;;;;;;;0.08;93.59;101140.49;5136736;55;1139074;-70
2022/03/03 10:24:28;;;;;;;173.07;49.97;;;;;;;0.12;93.35;101136.94;5110184;55;1138949;-70
2022/03/03 10:29:36;;;;;;;61.57;25.93;;;;;;;0.13;93.03;101136.05;4999239;57;1141060;-71
2022/03/03 10:34:43;;;;;;;52.33;23.33;;;;;;;0.12;93.45;101132.17;5002088;57;1138842;-72
2022/03/03 10:39:58;;;;;;;44.70;18.17;;;;;;;0.12;93.92;101139.98;5093653;55;1138716;-76
2022/03/03 10:45:11;;;;;;;45.45;17.65;;;;;;;0.14;94.70;101137.75;5137069;55;1138807;-76
2022/03/03 10:50:17;;;;;;;53.87;22.58;;;;;;;0.21;94.45;101135.83;5099613;55;1139052;-74
2022/03/03 10:55:23;;;;;;;45.40;18.63;;;;;;;0.33;94.24;101132.91;5057279;56;1138976;-75
2022/03/03 11:00:35;;;;;;;24.63;11.37;;;;;;;0.41;94.32;101142.69;5092879;55;1138871;-76
2022/03/03 11:05:40;;;;;;;44.07;19.53;;;;;;;0.41;94.86;101127.53;5101440;56;1138907;-74
2022/03/03 11:10:45;;;;;;;48.10;21.40;;;;;;;0.42;94.25;101125.33;5040607;56;1138659;-76
2022/03/03 11:15:52;;;;;;;51.40;19.63;;;;;;;0.50;94.31;101116.86;5031385;56;1138871;-74
2022/03/03 11:20:59;;;;;;;47.40;18.83;;;;;;;0.63;94.56;101116.94;5031401;56;1138617;-78
2022/03/03 11:26:05;;;;;;;75.20;30.43;;;;;;;0.69;94.33;101105.92;5031595;56;1138825;-78
2022/03/03 11:31:28;;;;;;;49.67;20.67;;;;;;;0.71;93.89;101088.96;5031544;56;1138836;-75
2022/03/03 11:36:38;;;;;;;65.17;25.77;;;;;;;0.87;94.50;101102.41;5037355;56;1138999;-81
2022/03/03 11:41:51;;;;;;;64.97;27.05;;;;;;;0.94;94.31;101096.96;5103953;56;1138807;-75
2022/03/03 11:46:57;;;;;;;52.23;18.70;;;;;;;0.97;93.75;101105.14;5112962;56;1138860;-77
2022/03/03 11:52:08;;;;;;;59.27;26.27;;;;;;;0.97;94.12;101101.23;5115846;55;1139013;-75
2022/03/03 11:57:21;;;;;;;65.15;27.73;;;;;;;1.00;94.17;101105.05;5115146;55;1139025;-74
2022/03/03 12:02:32;;;;;;;72.47;29.23;;;;;;;1.05;93.93;101105.78;5115164;56;1139178;-76
2022/03/03 12:07:39;;;;;;;70.78;30.20;;;;;;;1.15;94.15;101102.00;5115226;56;1139021;-75
2022/03/03 12:12:45;;;;;;;79.37;34.17;;;;;;;1.07;94.17;101102.66;5114865;56;1138769;-75
2022/03/03 12:18:00;;;;;;;68.17;29.23;;;;;;;1.11;94.64;101104.28;5114933;56;1139144;-75
2022/03/03 12:23:13;;;;;;;80.07;31.73;;;;;;;1.13;94.50;101109.01;5114839;56;1138791;-79
2022/03/03 12:28:39;;;;;;;76.95;30.55;;;;;;;1.17;94.50;101115.84;5115319;56;1138822;-78
2022/03/03 12:34:06;;;;;;;68.93;28.93;;;;;;;1.12;94.32;101104.69;5113258;56;1138896;-75
2022/03/03 12:39:16;;;;;;;80.93;31.33;;;;;;;1.17;94.14;101114.54;5039904;55;1138905;-82
2022/03/03 12:44:22;;;;;;;117.60;38.52;;;;;;;1.20;94.41;101107.94;5010292;57;1138890;-81
2022/03/03 12:49:27;;;;;;;95.60;35.30;;;;;;;1.28;94.63;101116.81;5085976;56;1140910;-77
2022/03/03 12:54:36;;;;;;;119.00;38.27;;;;;;;1.35;94.33;101114.45;5085062;55;1138967;-76
2022/03/03 12:59:42;;;;;;;98.37;33.33;;;;;;;1.39;94.35;101111.68;5077904;56;1140934;-77
2022/03/03 13:04:48;;;;;;;63.77;26.03;;;;;;;1.43;94.52;101102.47;5103450;55;1138971;-77
2022/03/03 13:09:57;;;;;;;62.60;23.45;;;;;;;1.48;94.21;101107.10;5091475;55;1139016;-80
2022/03/03 13:15:03;;;;;;;64.77;24.33;;;;;;;1.50;94.09;101109.22;5137237;55;1138933;-82
2022/03/03 13:20:10;;;;;;;42.30;18.70;;;;;;;1.59;94.27;101102.40;5111124;55;1138816;-77
2022/03/03 13:25:21;;;;;;;46.55;19.50;;;;;;;1.67;93.90;101103.88;5037612;56;1138866;-78
2022/03/03 13:30:27;;;;;;;68.12;25.17;;;;;;;1.70;93.84;101097.24;5053111;56;1138794;-76
2022/03/03 13:35:42;;;;;;;49.47;20.87;;;;;;;1.78;93.75;101093.55;5055673;56;1138890;-77
2022/03/03 13:40:47;;;;;;;39.90;16.83;;;;;;;1.90;93.98;101105.73;5030743;56;1138628;-78
2022/03/03 13:45:53;;;;;;;45.43;15.27;;;;;;;1.92;93.24;101106.55;5077324;56;1138903;-76
2022/03/03 13:51:05;;;;;;;47.57;19.83;;;;;;;1.95;93.42;101102.98;5052575;56;1138947;-75
2022/03/03 13:56:12;;;;;;;42.53;17.83;;;;;;;1.96;93.05;101104.25;5052902;56;1138789;-77
2022/03/03 14:01:27;;;;;;;48.73;18.37;;;;;;;2.00;92.75;101099.30;5049701;56;1139001;-75
2022/03/03 14:06:36;;;;;;;45.77;18.17;;;;;;;2.03;92.91;101087.92;5115647;56;1138820;-77
2022/03/03 14:11:41;;;;;;;48.17;17.60;;;;;;;2.04;92.84;101084.41;5115787;55;1138822;-75
2022/03/03 14:16:49;;;;;;;38.35;15.75;;;;;;;2.05;92.63;101087.42;5172797;55;1138694;-78
2022/03/03 14:21:55;;;;;;;91.70;35.30;;;;;;;2.11;92.38;101084.17;5202641;55;1138777;-77
2022/03/03 14:27:00;;;;;;;65.67;25.93;;;;;;;2.14;92.00;101089.71;5202148;55;1138648;-75
2022/03/03 14:32:06;;;;;;;124.60;48.03;;;;;;;2.15;91.74;101088.81;5202218;55;1139251;-76
2022/03/03 14:37:12;;;;;;;100.45;37.65;;;;;;;2.16;91.67;101073.55;5150278;55;1140984;-75
2022/03/03 14:42:18;;;;;;;215.18;105.58;;;;;;;2.18;91.66;101066.53;5052984;56;1141436;-76
2022/03/03 14:47:23;;;;;;;141.80;53.13;;;;;;;2.29;91.29;101067.48;5061628;56;1142972;-77
2022/03/03 14:52:29;;;;;;;101.22;36.85;;;;;;;2.34;91.39;101071.63;5043452;56;1221522;-78
2022/03/03 14:57:35;;;;;;;65.80;26.40;;;;;;;2.39;91.49;101072.33;5035743;56;1141242;-78
2022/03/03 15:02:41;;;;;;;40.20;15.57;;;;;;;2.52;91.36;101060.14;5063757;56;1138916;-78
2022/03/03 15:07:47;;;;;;;42.27;18.30;;;;;;;2.60;90.73;101062.03;5086804;56;1138850;-78
2022/03/03 15:12:53;;;;;;;66.63;25.80;;;;;;;2.76;91.11;101061.39;5086881;56;1138994;-76
2022/03/03 15:17:59;;;;;;;43.67;17.50;;;;;;;2.97;90.91;101055.84;5086600;55;1139015;-75
2022/03/03 15:23:05;;;;;;;36.98;18.45;;;;;;;3.14;90.25;101052.12;5085049;56;1138936;-76
2022/03/03 15:28:12;;;;;;;51.77;19.12;;;;;;;3.69;93.75;101049.94;5018760;57;1138825;-77
2022/03/03 15:38:40;;;;;;;;;;;;;;;5.54;83.56;101044.69;5031276;57;1138882;-77
2022/03/03 15:43:46;;;;;;;232.33;89.53;;;;;;;4.71;81.36;101049.48;4957648;58;971969;-75
2022/03/03 15:48:52;;;;;;;149.93;54.67;;;;;;;4.19;82.46;101054.84;5104328;55;1138864;-74
2022/03/03 15:53:58;;;;;;;215.47;78.67;;;;;;;3.81;82.74;101056.45;5109807;55;1140959;-74
2022/03/03 15:59:07;;;;;;;89.87;39.40;;;;;;;3.66;84.20;101062.31;5119800;55;1140948;-75
2022/03/03 16:04:14;;;;;;;47.30;16.13;;;;;;;4.09;85.34;101057.00;5115944;56;1138855;-74
2022/03/03 16:09:20;;;;;;;40.52;19.77;;;;;;;4.60;84.50;101070.05;5135958;55;1138891;-79
2022/03/03 16:14:25;;;;;;;91.82;39.63;;;;;;;4.71;81.96;101080.08;5035588;56;1138907;-78
2022/03/03 16:19:31;;;;;;;96.90;38.10;;;;;;;4.26;81.43;101079.00;5115609;56;1138980;-79
2022/03/03 16:24:38;;;;;;;79.30;29.87;;;;;;;3.88;81.49;101086.67;5132367;55;1138849;-77
2022/03/03 16:29:44;;;;;;;73.57;27.30;;;;;;;3.53;81.56;101095.92;5137431;56;1138784;-72
2022/03/03 16:34:53;;;;;;;99.80;27.77;;;;;;;3.20;81.50;101091.56;5125374;55;1139052;-74
2022/03/03 16:39:59;;;;;;;107.53;30.80;;;;;;;2.93;81.47;101093.43;5062883;55;1138799;-76
2022/03/03 16:45:06;;;;;;;95.90;24.43;;;;;;;2.70;81.77;101092.13;5126154;55;1140962;-74
2022/03/03 16:50:11;;;;;;;103.40;28.50;;;;;;;2.51;81.98;101097.14;5117935;55;1138861;-77
2022/03/03 16:55:19;;;;;;;108.65;34.75;;;;;;;2.33;82.35;101097.32;5127579;55;1141143;-75
2022/03/03 17:00:24;;;;;;;113.50;37.40;;;;;;;2.23;82.86;101096.39;5082487;56;1140893;-78
2022/03/03 17:05:30;;;;;;;147.07;53.90;;;;;;;2.07;82.80;101105.19;5097846;55;1140991;-77
2022/03/03 17:10:36;;;;;;;136.80;55.97;;;;;;;1.97;82.90;101105.09;5095622;55;1140928;-71
2022/03/03 17:15:41;;;;;;;195.23;70.00;;;;;;;1.80;82.51;101112.61;5096452;56;1140806;-70
2022/03/03 17:20:47;;;;;;;120.63;45.33;;;;;;;1.68;82.98;101106.86;5066728;56;1140968;-75
2022/03/03 17:25:53;;;;;;;78.30;27.90;;;;;;;1.53;82.79;101112.55;5070198;56;1141261;-74
2022/03/03 17:30:59;;;;;;;389.00;126.00;;;;;;;1.34;82.86;101117.95;5099247;55;1139080;-75
2022/03/03 17:36:05;;;;;;;415.37;182.57;;;;;;;1.34;84.05;101114.05;5146529;55;1142843;-75
2022/03/03 17:41:12;;;;;;;353.77;176.73;;;;;;;1.35;84.61;101114.00;5137036;55;1142910;-75
2022/03/03 17:46:17;;;;;;;239.23;110.33;;;;;;;1.38;84.68;101123.00;5137630;55;1152538;-75
2022/03/03 17:51:24;;;;;;;336.37;112.70;;;;;;;1.37;84.84;101119.16;5138257;55;1142882;-75
2022/03/03 17:56:29;;;;;;;357.83;156.12;;;;;;;1.41;84.84;101124.66;5111021;56;1142940;-76
2022/03/03 18:01:36;;;;;;;266.53;115.77;;;;;;;1.37;84.87;101121.33;5088476;56;1142975;-73
2022/03/03 18:06:42;;;;;;;347.05;159.65;;;;;;;1.35;85.12;101120.52;5097344;56;1142928;-74
2022/03/03 18:11:47;;;;;;;397.40;166.60;;;;;;;1.27;84.80;101123.78;5075900;56;1142968;-73
2022/03/03 18:16:53;;;;;;;340.53;118.07;;;;;;;1.27;85.47;101121.63;5091706;56;1142830;-70
2022/03/03 18:22:00;;;;;;;280.10;103.17;;;;;;;1.24;85.45;101134.28;5086385;56;1142851;-80
2022/03/03 18:27:08;;;;;;;387.20;139.23;;;;;;;1.12;85.39;101123.38;5103946;55;1142968;-78
2022/03/03 18:32:13;;;;;;;307.33;128.27;;;;;;;1.08;85.81;101114.79;5172475;55;1142912;-76
2022/03/03 18:37:19;;;;;;;545.30;170.05;;;;;;;1.02;86.04;101115.84;5101188;56;1142870;-76
2022/03/03 18:42:25;;;;;;;274.13;94.67;;;;;;;1.06;86.79;101114.01;5004326;56;1142852;-80
2022/03/03 18:47:30;;;;;;;137.68;53.85;;;;;;;1.04;86.61;101114.05;4911692;58;1140821;-75
2022/03/03 18:52:36;;;;;;;142.43;62.43;;;;;;;1.02;86.90;101107.17;5030176;57;1140856;-74
2022/03/03 18:57:42;;;;;;;199.20;73.43;;;;;;;0.99;87.15;101098.99;5091030;56;1141099;-73
2022/03/03 19:02:49;;;;;;;360.40;113.83;;;;;;;1.02;87.62;101101.96;5116403;56;1140895;-78
2022/03/03 19:07:54;;;;;;;168.45;57.80;;;;;;;0.95;87.81;101119.95;5115590;56;1142990;-79
2022/03/03 19:13:00;;;;;;;200.10;55.80;;;;;;;0.81;87.84;101116.44;5115272;56;1140817;-70
2022/03/03 19:18:09;;;;;;;124.87;50.77;;;;;;;0.72;88.55;101131.47;5099909;55;1141127;-71
2022/03/03 19:23:17;;;;;;;130.20;50.83;;;;;;;0.64;89.09;101134.27;5057153;55;1141053;-74
2022/03/03 19:28:22;;;;;;;80.30;31.87;;;;;;;0.60;89.47;101129.61;5084065;56;1141047;-73
2022/03/03 19:38:51;;;;;;;;;;;;;;;0.59;90.31;101137.45;5079704;56;1139106;-74
2022/03/03 19:43:56;;;;;;;78.67;31.50;;;;;;;0.57;90.57;101130.98;5099804;56;972005;-74
2022/03/03 19:49:02;;;;;;;66.60;27.37;;;;;;;0.60;90.55;101133.52;5085715;56;1137098;-73
2022/03/03 19:54:08;;;;;;;55.63;24.10;;;;;;;0.60;90.84;101131.36;5086416;56;1138858;-74
2022/03/03 19:59:14;;;;;;;60.73;23.13;;;;;;;0.60;91.16;101137.87;5090675;56;1138890;-73
2022/03/03 20:04:20;;;;;;;72.10;28.87;;;;;;;0.60;91.42;101137.42;5032249;57;1138895;-74
2022/03/03 20:14:50;;;;;;;67.00;30.25;;;;;;;0.65;91.45;101134.22;5033340;56;1138753;-73
2022/03/03 20:19:55;;;;;;;63.90;25.63;;;;;;;0.70;91.26;101151.03;5060869;56;1138803;-73
2022/03/03 20:25:01;;;;;;;58.33;26.87;;;;;;;0.75;91.07;101149.17;5058244;56;1138915;-73
2022/03/03 20:30:09;;;;;;;68.63;29.63;;;;;;;0.76;90.97;101150.02;5062707;56;1139022;-74
2022/03/03 20:35:18;;;;;;;71.87;28.40;;;;;;;0.84;91.59;101154.11;5039477;56;1138933;-74
2022/03/03 20:40:23;;;;;;;65.28;27.70;;;;;;;0.95;91.32;101155.11;5028723;56;1139192;-74
2022/03/03 20:45:29;;;;;;;70.55;29.85;;;;;;;0.95;90.89;101162.47;5034551;56;1138900;-73
2022/03/03 20:50:36;;;;;;;114.57;43.15;;;;;;;1.03;91.38;101163.58;5009424;57;1139053;-74
2022/03/03 20:55:42;;;;;;;119.73;44.30;;;;;;;1.02;90.75;101161.42;4997239;56;1140951;-74
2022/03/03 21:00:52;;;;;;;159.50;62.13;;;;;;;0.93;90.38;101166.86;5067294;56;1141097;-74
2022/03/03 21:05:57;;;;;;;137.23;55.03;;;;;;;0.96;91.03;101164.18;5112690;55;1140935;-73
2022/03/03 21:11:03;;;;;;;147.70;54.37;;;;;;;1.01;90.97;101164.06;5104099;55;1140890;-74
2022/03/03 21:16:08;;;;;;;108.93;43.70;;;;;;;0.98;90.94;101174.56;5052552;56;1140903;-74
2022/03/03 21:21:15;;;;;;;127.60;52.13;;;;;;;0.94;91.00;101168.58;5052031;56;1141245;-71
2022/03/03 21:26:20;;;;;;;99.40;37.00;;;;;;;0.91;91.31;101171.29;5052523;56;1140821;-70
2022/03/03 21:31:26;;;;;;;120.43;47.37;;;;;;;0.89;91.52;101166.56;5053137;56;1139033;-72
2022/03/03 21:36:32;;;;;;;100.20;41.00;;;;;;;0.78;91.49;101161.22;5075914;56;1140984;-74
2022/03/03 21:41:38;;;;;;;89.57;38.53;;;;;;;0.72;91.68;101162.26;5107382;55;1140993;-72
2022/03/03 21:46:43;;;;;;;81.53;33.80;;;;;;;0.70;91.82;101161.00;5098338;56;1138908;-73
2022/03/03 21:51:49;;;;;;;93.73;40.97;;;;;;;0.66;92.27;101149.39;5137734;56;1138782;-73
2022/03/03 21:56:55;;;;;;;84.47;37.40;;;;;;;0.59;92.93;101151.33;5107906;55;1138936;-71
2022/03/03 22:02:03;;;;;;;100.55;37.40;;;;;;;0.58;93.28;101150.06;5114587;56;1138709;-71
2022/03/03 22:07:09;;;;;;;92.23;39.60;;;;;;;0.57;93.55;101146.61;5063168;56;1140796;-72
2022/03/03 22:12:15;;;;;;;118.13;47.00;;;;;;;0.57;93.80;101145.75;5057450;56;1138740;-71
2022/03/03 22:17:22;;;;;;;95.67;39.63;;;;;;;0.57;93.82;101146.61;5069688;56;1141041;-71
2022/03/03 22:22:27;;;;;;;97.67;40.33;;;;;;;0.64;93.90;101145.98;5063388;56;1138835;-73
2022/03/03 22:27:33;;;;;;;108.60;39.73;;;;;;;0.70;94.03;101140.62;5058065;56;1138808;-71
2022/03/03 22:32:40;;;;;;;86.37;37.50;;;;;;;0.74;94.29;101143.55;5012568;56;1140746;-74
2022/03/03 22:37:45;;;;;;;96.50;40.20;;;;;;;0.74;94.42;101140.95;5026279;56;1139002;-72
2022/03/03 22:42:51;;;;;;;92.60;42.03;;;;;;;0.78;94.58;101143.85;5051867;56;1138812;-69
2022/03/03 22:47:57;;;;;;;86.40;37.98;;;;;;;0.84;94.69;101141.09;5076678;56;1139020;-71
2022/03/03 22:53:04;;;;;;;78.80;37.53;;;;;;;0.89;94.16;101144.43;5087055;56;1138919;-71
2022/03/03 22:58:11;;;;;;;565.97;176.27;;;;;;;0.89;94.02;101134.02;5087214;56;1138792;-70
2022/03/03 23:08:40;;;;;;;87.73;38.03;;;;;;;0.76;94.35;101136.56;5137090;55;1141362;-76
2022/03/03 23:13:46;;;;;;;94.63;41.43;;;;;;;0.73;94.50;101152.70;5137322;55;1138893;-71
2022/03/03 23:18:53;;;;;;;89.37;40.60;;;;;;;0.73;94.68;101153.56;5157271;55;1138798;-74
2022/03/03 23:23:59;;;;;;;84.60;36.95;;;;;;;0.77;94.78;101146.05;5137604;55;1138838;-73
2022/03/03 23:29:06;;;;;;;93.37;38.10;;;;;;;0.81;94.96;101145.08;5137742;55;1138927;-72